Time;durP1;ratioP1;P1;durP2;ratioP2;P2;SDS_P1;SDS_P2;PMS_P1;PMS_P2;Temp;Humidity;BMP_temperature;BMP_pressure;BME280_temperature;BME280_humidity;BME280_pressure;Samples;Min_cycle;Max_cycle;Signal;HPM_P1;HPM_P2
2022/06/27 04:17:34;;;;;;;6.93;4.80;;;;;;;17.32;100.00;99965.28;4895687;23;20076;-66
2022/06/27 04:20:38;;;;;;;10.27;5.50;;;;;;;17.34;100.00;99968.56;4895808;29;20513;-66
2022/06/27 04:23:04;;;;;;;4.85;3.03;;;;;;;17.52;100.00;99970.44;4894896;29;20036;-68
2022/06/27 04:25:52;;;;;;;5.82;3.20;;;;;;;17.45;100.00;99970.53;4896006;29;20060;-67
2022/06/27 04:28:18;;;;;;;5.95;2.50;;;;;;;17.34;100.00;99995.50;4894665;29;20045;-67
2022/06/27 04:30:44;;;;;;;7.40;2.70;;;;;;;17.37;100.00;100005.81;4896396;29;20037;-67
2022/06/27 04:33:10;;;;;;;6.75;2.70;;;;;;;17.44;100.00;100025.41;4879336;29;20041;-68
2022/06/27 04:35:36;;;;;;;5.78;2.65;;;;;;;17.57;100.00;100036.06;4894744;29;20128;-68
2022/06/27 04:38:03;;;;;;;6.68;3.40;;;;;;;17.48;100.00;100031.19;4894677;29;20040;-68
2022/06/27 04:40:35;;;;;;;10.18;3.72;;;;;;;17.49;100.00;100030.97;4895846;29;20084;-67
2022/06/27 04:43:01;;;;;;;5.00;3.30;;;;;;;17.51;100.00;100031.56;4894655;29;20033;-68
2022/06/27 04:45:27;;;;;;;6.93;3.50;;;;;;;17.75;100.00;100035.25;4894495;29;20409;-68
2022/06/27 04:48:05;;;;;;;7.32;3.47;;;;;;;17.93;100.00;100037.13;4910325;29;20096;-67
2022/06/27 04:50:32;;;;;;;6.10;3.63;;;;;;;17.70;100.00;100027.00;4895730;29;20132;-68
2022/06/27 04:53:00;;;;;;;7.43;4.40;;;;;;;17.69;100.00;100016.47;4894519;29;20020;-68
2022/06/27 04:55:26;;;;;;;;;;;;;;;17.70;100.00;100018.91;4910667;29;20049;-68
2022/06/27 04:57:52;;;;;;;7.97;4.32;;;;;;;17.69;100.00;100025.34;4895686;29;20366;-68
2022/06/27 05:00:18;;;;;;;6.72;4.25;;;;;;;17.75;100.00;100023.66;4909871;29;20083;-68
2022/06/27 05:02:58;;;;;;;7.47;4.50;;;;;;;17.76;100.00;100018.06;4895760;29;20045;-68
2022/06/27 05:05:25;;;;;;;8.33;4.27;;;;;;;17.72;100.00;100016.03;4895495;29;20052;-68
2022/06/27 05:07:51;;;;;;;6.53;4.90;;;;;;;17.72;100.00;100042.97;4913480;29;20060;-68
2022/06/27 05:10:18;;;;;;;9.43;4.53;;;;;;;17.72;100.00;100056.44;4897258;29;20519;-68
2022/06/27 05:12:43;;;;;;;8.90;5.40;;;;;;;17.73;100.00;100061.59;4897602;29;20135;-67
2022/06/27 05:15:09;;;;;;;7.97;5.13;;;;;;;17.71;100.00;100065.53;4897507;29;20037;-68
2022/06/27 05:17:35;;;;;;;11.40;5.53;;;;;;;17.74;100.00;100074.03;4897545;29;20050;-68
2022/06/27 05:20:02;;;;;;;8.50;4.72;;;;;;;17.75;100.00;100080.25;4897331;29;20405;-68
2022/06/27 05:22:28;;;;;;;;;;;;;;;17.75;100.00;100075.69;4897927;29;20486;-67
2022/06/27 05:24:54;;;;;;;10.65;5.70;;;;;;;17.78;100.00;100069.00;4913231;29;19926;-66
2022/06/27 05:27:19;;;;;;;9.57;6.00;;;;;;;17.77;100.00;100072.75;4912993;29;20044;-64
2022/06/27 05:29:45;;;;;;;11.77;5.47;;;;;;;17.75;100.00;100085.63;4912871;29;20093;-64
2022/06/27 05:32:11;;;;;;;9.20;5.95;;;;;;;17.79;100.00;100095.72;4897252;29;20044;-64
2022/06/27 05:34:38;;;;;;;10.30;5.60;;;;;;;17.79;100.00;100097.59;4897192;29;20045;-64
2022/06/27 05:37:05;;;;;;;10.38;5.90;;;;;;;17.81;100.00;100098.19;4897045;29;20044;-64
2022/06/27 05:39:33;;;;;;;10.35;6.35;;;;;;;17.79;100.00;100105.66;4912586;29;20037;-64
2022/06/27 05:41:58;;;;;;;;;;;;;;;17.82;100.00;100103.34;4898943;29;20502;-67
2022/06/27 05:44:27;;;;;;;11.13;5.40;;;;;;;17.83;100.00;100107.69;4897080;29;19926;-66
2022/06/27 05:46:56;;;;;;;10.05;5.63;;;;;;;17.85;100.00;100115.53;4897491;29;20044;-65
2022/06/27 05:49:44;;;;;;;9.45;6.13;;;;;;;17.80;100.00;100104.63;4898247;29;20049;-64
2022/06/27 05:52:10;;;;;;;12.60;5.68;;;;;;;17.94;100.00;100116.91;4912679;29;20033;-64
2022/06/27 05:54:36;;;;;;;9.77;6.55;;;;;;;17.95;100.00;100105.09;4896923;29;20029;-64
2022/06/27 05:57:04;;;;;;;11.47;7.17;;;;;;;17.97;100.00;100113.75;4896794;29;20047;-64
2022/06/27 05:59:29;;;;;;;11.13;6.38;;;;;;;17.97;100.00;100116.44;4896482;29;20033;-63
2022/06/27 06:02:00;;;;;;;11.90;7.13;;;;;;;17.94;100.00;100111.53;4881737;29;20029;-64
2022/06/27 06:04:26;;;;;;;;;;;;;;;17.96;100.00;100124.78;4897397;29;20127;-63
2022/06/27 06:06:52;;;;;;;11.40;6.80;;;;;;;17.95;100.00;100115.88;4896695;29;19973;-63
2022/06/27 06:09:18;;;;;;;18.08;7.60;;;;;;;17.97;100.00;100116.44;4880873;29;20040;-64
2022/06/27 06:11:46;;;;;;;15.10;7.63;;;;;;;17.97;100.00;100124.53;4896591;29;20397;-63
2022/06/27 06:14:12;;;;;;;12.75;8.00;;;;;;;17.98;100.00;100112.72;4896570;29;20087;-63
2022/06/27 06:16:39;;;;;;;13.45;9.27;;;;;;;18.02;100.00;100131.97;4896222;29;20055;-62
2022/06/27 06:19:05;;;;;;;12.02;7.70;;;;;;;18.02;100.00;100135.47;4896253;29;20498;-63
2022/06/27 06:21:31;;;;;;;14.60;8.88;;;;;;;18.03;100.00;100126.34;4896366;29;20557;-63
2022/06/27 06:23:57;;;;;;;13.75;8.55;;;;;;;18.02;100.00;100115.78;4897595;29;20072;-63
2022/06/27 06:26:23;;;;;;;17.25;9.23;;;;;;;18.04;100.00;100124.47;4880715;29;20504;-64
2022/06/27 06:28:49;;;;;;;17.50;9.60;;;;;;;18.06;100.00;100131.28;4895784;29;20044;-64
2022/06/27 06:31:23;;;;;;;;;;;;;;;18.06;100.00;100134.00;4912451;29;20071;-64
2022/06/27 06:33:54;;;;;;;14.50;9.10;;;;;;;18.06;100.00;100128.59;4896417;29;19923;-65
2022/06/27 06:36:22;;;;;;;13.25;8.55;;;;;;;18.11;100.00;100134.13;4896052;29;20040;-64
2022/06/27 06:38:50;;;;;;;13.77;8.77;;;;;;;18.12;100.00;100129.53;4895832;29;20119;-64
2022/06/27 06:41:16;;;;;;;13.20;8.70;;;;;;;18.14;100.00;100130.97;4895836;29;20044;-65
2022/06/27 06:43:42;;;;;;;13.98;9.07;;;;;;;18.17;100.00;100130.50;4895958;29;20048;-65
2022/06/27 06:46:32;;;;;;;12.52;8.68;;;;;;;18.22;100.00;100132.53;4903584;29;20522;-65
2022/06/27 06:49:11;;;;;;;16.65;9.30;;;;;;;18.20;100.00;100140.03;4895695;29;20071;-65
2022/06/27 06:51:39;;;;;;;16.23;9.38;;;;;;;18.23;100.00;100133.38;4897114;29;20025;-65
2022/06/27 06:54:06;;;;;;;15.65;9.57;;;;;;;18.24;100.00;100137.72;4897070;29;20127;-65
2022/06/27 06:56:33;;;;;;;14.38;8.10;;;;;;;18.24;100.00;100135.00;4897071;29;20422;-63
2022/06/27 06:58:59;;;;;;;12.43;8.93;;;;;;;18.29;100.00;100138.69;4896937;29;20406;-64
2022/06/27 07:01:25;;;;;;;12.55;8.35;;;;;;;18.31;100.00;100127.66;4897075;29;20104;-63
2022/06/27 07:03:52;;;;;;;11.45;8.05;;;;;;;18.31;100.00;100151.94;4896991;29;20060;-63
2022/06/27 07:06:24;;;;;;;9.85;7.82;;;;;;;18.27;100.00;100145.34;4896801;29;20769;-63
2022/06/27 07:08:53;;;;;;;12.77;8.32;;;;;;;18.32;100.00;100122.06;4896585;29;20048;-63
2022/06/27 07:11:22;;;;;;;11.57;7.55;;;;;;;18.33;100.00;100133.66;4896970;29;20051;-63
2022/06/27 07:13:52;;;;;;;10.55;7.13;;;;;;;18.37;100.00;100124.06;4896881;29;20476;-62
2022/06/27 07:16:19;;;;;;;11.75;7.22;;;;;;;18.38;100.00;100131.09;4896703;29;20044;-63
2022/06/27 07:18:46;;;;;;;9.43;7.95;;;;;;;18.55;100.00;100134.81;4896424;29;20047;-63
2022/06/27 07:21:17;;;;;;;12.80;8.50;;;;;;;18.68;100.00;100140.06;4896726;29;20041;-63
2022/06/27 07:23:46;;;;;;;9.00;6.88;;;;;;;18.73;100.00;100138.56;4896708;29;20513;-63
2022/06/27 07:26:12;;;;;;;10.40;6.38;;;;;;;18.80;100.00;100147.38;4896454;29;20064;-62
2022/06/27 07:28:38;;;;;;;8.95;6.32;;;;;;;18.75;100.00;100163.44;4895791;29;20035;-64
2022/06/27 07:31:08;;;;;;;9.70;7.18;;;;;;;18.68;100.00;100168.91;4896595;29;20041;-63
2022/06/27 07:33:44;;;;;;;10.10;6.75;;;;;;;18.61;100.00;100184.34;4896543;29;20048;-64
2022/06/27 07:36:15;;;;;;;11.00;7.13;;;;;;;18.57;100.00;100183.97;4896387;29;20044;-63
2022/06/27 07:38:46;;;;;;;10.77;7.40;;;;;;;18.55;100.00;100174.47;4896236;29;20036;-62
2022/06/27 07:41:13;;;;;;;10.63;7.30;;;;;;;18.53;100.00;100176.56;4910818;29;20045;-64
2022/06/27 07:43:40;;;;;;;11.23;7.53;;;;;;;18.62;100.00;100170.63;4896294;29;20510;-63
2022/06/27 07:46:05;;;;;;;10.27;7.82;;;;;;;18.66;100.00;100174.56;4896327;29;20092;-63
2022/06/27 07:48:31;;;;;;;11.23;7.43;;;;;;;18.64;100.00;100179.28;4895846;29;20037;-64
2022/06/27 07:50:57;;;;;;;13.18;9.25;;;;;;;18.62;100.00;100175.19;4896262;29;20060;-63
2022/06/27 07:53:24;;;;;;;12.90;9.10;;;;;;;18.65;100.00;100186.38;4896161;29;20063;-63
2022/06/27 07:55:54;;;;;;;13.70;9.73;;;;;;;18.68;100.00;100190.50;4896168;29;20096;-65
2022/06/27 07:58:30;;;;;;;13.20;8.75;;;;;;;18.72;100.00;100188.19;4896477;29;20361;-65
2022/06/27 08:00:57;;;;;;;13.65;9.52;;;;;;;18.66;100.00;100188.03;4896489;29;20047;-65
2022/06/27 08:03:42;;;;;;;13.93;9.88;;;;;;;18.69;100.00;100202.94;4896123;29;20513;-65
2022/06/27 08:06:26;;;;;;;13.77;9.25;;;;;;;18.70;100.00;100191.91;4896132;29;20079;-65
2022/06/27 08:08:57;;;;;;;18.42;9.75;;;;;;;18.67;100.00;100202.34;4894769;29;20410;-65
2022/06/27 08:11:34;;;;;;;16.05;10.10;;;;;;;18.70;100.00;100196.47;4896995;29;20069;-65
2022/06/27 08:14:05;;;;;;;15.50;10.25;;;;;;;18.64;100.00;100195.47;4896571;29;20053;-64
2022/06/27 08:16:32;;;;;;;20.60;10.70;;;;;;;18.58;100.00;100187.47;4895961;29;20382;-64
2022/06/27 08:18:58;;;;;;;17.38;10.15;;;;;;;18.51;100.00;100195.66;4896294;29;20032;-64
2022/06/27 08:21:25;;;;;;;16.40;9.93;;;;;;;18.51;100.00;100189.44;4896014;29;20375;-65
2022/06/27 08:23:56;;;;;;;18.50;10.90;;;;;;;18.42;100.00;100202.41;4896169;29;20135;-65
2022/06/27 08:26:23;;;;;;;17.58;11.20;;;;;;;18.44;100.00;100205.69;4895896;29;20037;-64
2022/06/27 08:28:50;;;;;;;19.10;11.85;;;;;;;18.34;100.00;100205.41;4895723;29;20032;-64
2022/06/27 08:31:17;;;;;;;17.73;10.25;;;;;;;18.31;100.00;100227.41;4896108;29;20447;-65
2022/06/27 08:33:44;;;;;;;16.63;11.25;;;;;;;18.34;100.00;100227.00;4896292;29;20542;-66
2022/06/27 08:36:12;;;;;;;15.23;10.40;;;;;;;18.32;100.00;100234.44;4896090;29;20087;-64
2022/06/27 08:38:46;;;;;;;14.93;10.65;;;;;;;18.35;100.00;100225.94;4894502;29;20072;-64
2022/06/27 08:41:12;;;;;;;16.65;10.85;;;;;;;18.33;100.00;100233.44;4898337;29;20032;-63
2022/06/27 08:43:39;;;;;;;14.50;9.93;;;;;;;18.30;100.00;100234.69;4899642;29;20384;-64
2022/06/27 08:46:10;;;;;;;17.77;9.93;;;;;;;18.31;100.00;100225.53;4899338;29;20044;-64
2022/06/27 08:48:38;;;;;;;17.45;10.15;;;;;;;18.39;100.00;100224.44;4897077;29;20123;-63
2022/06/27 08:51:05;;;;;;;19.00;11.88;;;;;;;18.49;100.00;100213.13;4899397;29;20047;-63
2022/06/27 08:53:32;;;;;;;17.75;11.43;;;;;;;18.61;100.00;100232.91;4899269;29;20044;-64
2022/06/27 08:55:59;;;;;;;21.00;13.50;;;;;;;18.76;100.00;100237.91;4899368;29;20037;-64
2022/06/27 08:58:25;;;;;;;18.27;11.25;;;;;;;19.14;100.00;100243.03;4899021;29;20040;-64
2022/06/27 09:00:51;;;;;;;15.15;11.05;;;;;;;19.44;100.00;100257.34;4898921;29;20127;-63
2022/06/27 09:03:18;;;;;;;14.52;10.32;;;;;;;19.54;100.00;100264.84;4899234;29;20131;-64
2022/06/27 09:05:57;;;;;;;16.20;10.65;;;;;;;19.63;100.00;100276.22;4898887;29;20055;-64
2022/06/27 09:08:23;;;;;;;11.63;9.00;;;;;;;19.54;100.00;100278.38;4898760;29;20036;-63
2022/06/27 09:10:49;;;;;;;12.27;8.95;;;;;;;19.48;100.00;100274.72;4897668;29;20116;-63
2022/06/27 09:13:17;;;;;;;12.18;8.85;;;;;;;19.37;100.00;100282.81;4898911;29;20115;-65
2022/06/27 09:15:51;;;;;;;13.90;9.75;;;;;;;19.32;100.00;100288.06;4897405;29;20088;-64
2022/06/27 09:18:20;;;;;;;11.35;9.07;;;;;;;19.25;100.00;100288.97;4898748;29;20072;-64
2022/06/27 09:20:57;;;;;;;12.65;9.10;;;;;;;19.18;100.00;100280.16;4881959;29;20498;-65
2022/06/27 09:23:39;;;;;;;13.13;9.50;;;;;;;19.27;100.00;100259.03;4898807;29;20033;-64
2022/06/27 09:26:12;;;;;;;16.45;10.45;;;;;;;19.39;100.00;100262.59;4881738;29;20051;-65
2022/06/27 09:28:39;;;;;;;13.40;9.35;;;;;;;19.47;100.00;100264.13;4898347;29;20056;-64
2022/06/27 09:31:06;;;;;;;;;;;;;;;20.08;100.00;100275.66;4898930;29;20036;-63
2022/06/27 09:33:32;;;;;;;12.50;9.90;;;;;;;20.21;100.00;100267.28;4898544;29;20067;-64
2022/06/27 09:35:57;;;;;;;12.45;9.73;;;;;;;20.59;100.00;100272.22;4897086;29;20127;-63
2022/06/27 09:38:23;;;;;;;13.20;9.30;;;;;;;20.77;100.00;100282.06;4896749;29;20036;-64
2022/06/27 09:40:49;;;;;;;11.07;7.47;;;;;;;20.65;100.00;100292.91;4898439;29;20048;-65
2022/06/27 09:43:19;;;;;;;11.15;8.07;;;;;;;20.65;100.00;100292.91;4897161;29;20040;-64
2022/06/27 09:45:46;;;;;;;12.63;7.60;;;;;;;20.58;100.00;100293.06;4896914;29;20048;-65
2022/06/27 09:48:14;;;;;;;10.80;7.93;;;;;;;20.69;100.00;100288.69;4898267;29;20410;-64
2022/06/27 09:50:40;;;;;;;9.52;7.20;;;;;;;20.83;100.00;100298.19;4897688;29;20399;-65
2022/06/27 09:53:06;;;;;;;13.95;7.80;;;;;;;20.77;100.00;100311.84;4896945;29;20389;-64
2022/06/27 09:55:32;;;;;;;9.05;7.43;;;;;;;20.77;100.00;100319.97;4898182;29;20045;-65
2022/06/27 09:57:59;;;;;;;10.13;6.82;;;;;;;20.75;100.00;100327.53;4898176;29;20036;-66
2022/06/27 10:00:26;;;;;;;10.77;7.78;;;;;;;20.65;100.00;100341.63;4897961;29;20498;-66
2022/06/27 10:02:53;;;;;;;11.85;7.75;;;;;;;20.58;100.00;100343.66;4898132;29;20096;-65
2022/06/27 10:05:19;;;;;;;12.70;8.30;;;;;;;20.57;100.00;100352.81;4897967;29;20041;-66
2022/06/27 10:08:02;;;;;;;13.45;7.80;;;;;;;20.41;100.00;100359.75;4896753;29;20036;-66
2022/06/27 10:10:51;;;;;;;12.70;8.38;;;;;;;20.24;100.00;100356.91;4897596;29;20044;-65
2022/06/27 10:13:17;;;;;;;12.98;8.27;;;;;;;20.12;100.00;100369.59;4897896;29;20041;-66
2022/06/27 10:15:43;;;;;;;13.10;8.40;;;;;;;19.94;100.00;100361.56;4897703;29;20037;-65
2022/06/27 10:18:09;;;;;;;14.10;8.57;;;;;;;19.89;100.00;100342.53;4897712;29;20040;-66
2022/06/27 10:20:36;;;;;;;17.58;9.82;;;;;;;19.74;100.00;100356.44;4896110;29;20051;-65
2022/06/27 10:23:11;;;;;;;15.52;9.20;;;;;;;19.87;100.00;100355.44;4897548;29;20115;-65
2022/06/27 10:25:38;;;;;;;15.50;9.93;;;;;;;19.89;100.00;100345.22;4897399;29;20099;-65
2022/06/27 10:30:56;;;;;;;14.43;9.68;;;;;;;19.70;100.00;100366.91;4927919;23;20617;-63
2022/06/27 10:33:24;;;;;;;16.40;9.85;;;;;;;19.72;100.00;100366.69;4916716;29;20089;-63
2022/06/27 10:35:59;;;;;;;14.43;8.77;;;;;;;19.67;100.00;100372.75;4909230;29;20119;-63
2022/06/27 10:38:42;;;;;;;17.48;10.95;;;;;;;19.72;100.00;100375.59;4914551;29;20043;-63
2022/06/27 10:41:10;;;;;;;15.38;9.80;;;;;;;19.78;100.00;100369.28;4905746;29;20052;-63
2022/06/27 10:43:36;;;;;;;14.25;9.75;;;;;;;19.86;100.00;100370.81;4897217;29;20036;-62
2022/06/27 10:46:10;;;;;;;13.77;9.90;;;;;;;20.02;100.00;100363.94;4897302;29;20043;-63
2022/06/27 10:48:38;;;;;;;15.30;9.18;;;;;;;20.18;100.00;100362.44;4896545;29;20036;-62
2022/06/27 10:51:29;;;;;;;14.50;9.40;;;;;;;20.30;100.00;100366.78;4896884;29;20041;-63
2022/06/27 10:54:04;;;;;;;16.90;10.77;;;;;;;20.43;100.00;100376.56;4897311;29;20060;-63
2022/06/27 10:56:29;;;;;;;19.35;9.48;;;;;;;20.55;100.00;100373.91;4896867;29;20538;-63
2022/06/27 10:58:59;;;;;;;14.70;9.27;;;;;;;20.70;100.00;100371.53;4896469;29;20040;-63
2022/06/27 11:01:25;;;;;;;15.30;9.15;;;;;;;20.57;100.00;100386.13;4896919;29;20131;-63
2022/06/27 11:03:51;;;;;;;14.55;9.65;;;;;;;20.55;100.00;100385.53;4896379;29;20044;-63
2022/06/27 11:06:17;;;;;;;13.98;9.23;;;;;;;20.56;100.00;100391.78;4895408;29;20123;-63
2022/06/27 11:08:48;;;;;;;14.48;8.23;;;;;;;20.51;100.00;100378.13;4896358;29;20136;-63
2022/06/27 11:11:18;;;;;;;13.98;8.82;;;;;;;20.40;100.00;100376.19;4896806;29;20068;-62
2022/06/27 11:13:45;;;;;;;17.17;9.23;;;;;;;20.33;100.00;100369.00;4896783;29;20048;-62
2022/06/27 11:16:30;;;;;;;13.70;9.25;;;;;;;20.27;100.00;100356.44;4896536;29;20185;-63
2022/06/27 11:19:02;;;;;;;14.95;8.48;;;;;;;20.21;100.00;100372.75;4896025;29;20123;-62
2022/06/27 11:21:35;;;;;;;12.63;7.85;;;;;;;20.14;100.00;100378.28;4895178;29;20083;-63
2022/06/27 11:24:03;;;;;;;12.32;8.10;;;;;;;20.07;100.00;100377.56;4896839;29;20054;-63
2022/06/27 11:26:34;;;;;;;12.20;7.03;;;;;;;20.11;100.00;100369.81;4896559;29;20044;-63
2022/06/27 11:32:02;;;;;;;11.93;6.82;;;;;;;20.21;100.00;100370.91;4896176;29;20136;-63
2022/06/27 11:34:30;;;;;;;9.38;6.35;;;;;;;20.43;100.00;100363.03;4895279;29;20096;-63
2022/06/27 11:36:57;;;;;;;8.90;6.10;;;;;;;20.54;100.00;100361.44;4880961;29;20056;-63
2022/06/27 11:39:27;;;;;;;8.82;5.78;;;;;;;20.80;100.00;100355.53;4877295;29;20097;-63
2022/06/27 11:42:00;;;;;;;9.45;5.60;;;;;;;20.92;97.61;100369.00;4877680;29;20158;-62
2022/06/27 11:44:26;;;;;;;8.23;6.05;;;;;;;21.13;96.65;100371.13;4877985;29;20056;-62
2022/06/27 11:47:01;;;;;;;9.77;6.07;;;;;;;21.34;97.57;100376.97;4876233;29;20037;-63
2022/06/27 11:49:30;;;;;;;8.32;5.18;;;;;;;21.63;96.45;100383.19;4876810;29;20068;-63
2022/06/27 11:52:01;;;;;;;7.80;5.20;;;;;;;21.81;98.34;100377.56;4877509;29;20564;-63
2022/06/27 11:54:42;;;;;;;8.45;5.53;;;;;;;21.97;92.73;100375.13;4877610;29;20045;-63
2022/06/27 11:57:24;;;;;;;7.88;5.35;;;;;;;22.25;91.15;100369.69;4877401;29;20047;-63
2022/06/27 11:59:52;;;;;;;9.15;4.80;;;;;;;22.68;92.77;100377.09;4877400;29;20033;-63
2022/06/27 12:02:32;;;;;;;5.45;4.20;;;;;;;22.89;88.28;100361.97;4877740;29;20049;-63
2022/06/27 12:05:08;;;;;;;6.95;4.25;;;;;;;22.86;85.36;100362.44;4877817;29;20491;-63
2022/06/27 12:08:00;;;;;;;6.35;4.40;;;;;;;22.68;81.73;100360.81;4877825;29;20045;-64
2022/06/27 12:11:17;;;;;;;6.68;3.80;;;;;;;22.91;81.77;100356.28;4877535;29;20120;-56
2022/06/27 12:13:36;;;;;;;5.65;4.15;;;;;;;23.43;87.18;100369.41;4877723;29;20037;-50
2022/06/27 12:16:03;;;;;;;4.63;3.42;;;;;;;23.73;85.31;100366.19;4881575;29;20109;-57
2022/06/27 12:18:33;;;;;;;4.10;3.42;;;;;;;23.76;77.45;100360.25;4881151;29;20044;-52
2022/06/27 12:20:59;;;;;;;4.35;3.30;;;;;;;23.76;78.88;100360.25;4881344;29;20036;-64
2022/06/27 12:23:24;;;;;;;4.18;3.40;;;;;;;23.36;75.95;100361.44;4881409;29;20048;-64
2022/06/27 12:25:49;;;;;;;7.22;3.55;;;;;;;23.24;78.51;100371.63;4881508;29;20068;-64
2022/06/27 12:28:15;;;;;;;3.70;2.80;;;;;;;22.83;80.01;100381.13;4881159;29;20510;-64
2022/06/27 12:30:40;;;;;;;4.72;3.33;;;;;;;22.69;80.05;100380.63;4880913;29;20199;-63
2022/06/27 12:33:06;;;;;;;3.90;3.20;;;;;;;22.41;82.85;100385.13;4881139;29;20128;-63
2022/06/27 12:35:33;;;;;;;3.90;3.30;;;;;;;22.43;84.20;100382.13;4881215;29;20174;-63
2022/06/27 12:38:03;;;;;;;5.15;3.53;;;;;;;22.33;85.41;100373.84;4881207;29;20072;-64
2022/06/27 12:40:29;;;;;;;4.55;3.53;;;;;;;22.23;88.21;100374.50;4880914;29;20739;-64
2022/06/27 12:42:55;;;;;;;3.60;3.28;;;;;;;22.11;84.77;100381.94;4880987;29;20509;-64
2022/06/27 12:45:20;;;;;;;4.10;3.03;;;;;;;22.08;86.06;100390.50;4880066;29;20041;-64
2022/06/27 12:47:45;;;;;;;5.45;3.60;;;;;;;21.97;86.94;100397.63;4879762;29;20045;-64
2022/06/27 12:50:11;;;;;;;4.18;2.83;;;;;;;21.92;85.63;100390.25;4879263;29;20041;-63
2022/06/27 12:52:37;;;;;;;3.28;2.97;;;;;;;21.82;85.54;100384.63;4880858;29;20037;-63
2022/06/27 12:55:04;;;;;;;4.83;2.90;;;;;;;21.73;86.31;100380.69;4879548;29;20052;-64
2022/06/27 12:57:29;;;;;;;3.83;3.08;;;;;;;21.73;87.03;100379.88;4880854;29;20049;-63
2022/06/27 12:59:55;;;;;;;8.30;3.00;;;;;;;21.63;88.22;100369.66;4880279;29;20083;-64
2022/06/27 13:02:20;;;;;;;3.60;2.47;;;;;;;21.72;89.62;100368.22;4880561;29;20041;-64
2022/06/27 13:04:45;;;;;;;4.13;3.05;;;;;;;21.75;89.61;100356.03;4879454;29;20380;-63
2022/06/27 13:07:11;;;;;;;4.65;2.78;;;;;;;21.76;86.19;100366.63;4880774;29;20044;-64
2022/06/27 13:09:37;;;;;;;2.92;2.60;;;;;;;21.68;84.60;100373.28;4880292;29;20033;-63
2022/06/27 13:12:03;;;;;;;4.78;2.97;;;;;;;21.72;85.34;100370.09;4880465;29;20041;-64
2022/06/27 13:14:28;;;;;;;3.28;2.90;;;;;;;21.72;84.65;100373.63;4880344;29;20043;-63
2022/06/27 13:16:55;;;;;;;3.47;2.72;;;;;;;21.76;84.11;100377.47;4880415;29;20475;-62
2022/06/27 13:19:20;;;;;;;5.00;2.30;;;;;;;21.75;84.08;100375.84;4879955;29;20503;-63
2022/06/27 13:21:45;;;;;;;3.88;2.67;;;;;;;21.75;81.72;100372.31;4880142;29;20089;-63
2022/06/27 13:24:11;;;;;;;3.72;2.55;;;;;;;21.73;80.97;100377.97;4880270;29;20029;-63
2022/06/27 13:26:36;;;;;;;2.85;2.42;;;;;;;21.68;80.64;100383.31;4879501;29;20045;-64
2022/06/27 13:29:02;;;;;;;3.20;2.13;;;;;;;21.62;79.99;100379.66;4880595;29;20513;-63
2022/06/27 13:31:27;;;;;;;4.43;2.50;;;;;;;21.58;81.51;100388.53;4880284;29;20069;-64
2022/06/27 13:33:53;;;;;;;3.67;2.50;;;;;;;21.49;83.08;100390.81;4880099;29;20053;-64
2022/06/27 13:36:18;;;;;;;2.97;2.55;;;;;;;21.39;82.43;100396.03;4880019;29;20126;-65
2022/06/27 13:38:44;;;;;;;2.92;2.35;;;;;;;21.35;81.38;100400.28;4879644;29;20075;-65
2022/06/27 13:41:09;;;;;;;2.38;2.17;;;;;;;21.24;82.73;100406.50;4879901;29;20072;-65
2022/06/27 13:43:34;;;;;;;3.25;2.05;;;;;;;21.20;81.94;100406.19;4879852;29;20451;-64
2022/06/27 13:46:00;;;;;;;2.42;2.13;;;;;;;21.21;81.84;100417.84;4879737;29;20045;-64
2022/06/27 13:48:26;;;;;;;3.88;2.33;;;;;;;21.18;83.18;100410.19;4879726;29;20047;-65
2022/06/27 13:50:52;;;;;;;2.85;2.00;;;;;;;21.30;82.29;100414.53;4879774;29;20041;-64
2022/06/27 13:53:17;;;;;;;2.53;1.88;;;;;;;21.44;82.46;100411.56;4879669;29;20033;-64
2022/06/27 13:55:42;;;;;;;2.58;2.35;;;;;;;21.53;82.39;100420.97;4878435;29;20044;-64
2022/06/27 13:58:08;;;;;;;7.80;2.50;;;;;;;21.54;82.55;100430.75;4879466;29;20033;-64
2022/06/27 14:00:35;;;;;;;3.30;2.05;;;;;;;21.53;82.52;100421.78;4879521;29;20199;-64
2022/06/27 14:03:00;;;;;;;3.67;1.83;;;;;;;21.50;82.44;100433.09;4879601;29;20348;-64
2022/06/27 14:05:26;;;;;;;2.80;2.22;;;;;;;21.54;82.99;100426.13;4878293;29;20041;-65
2022/06/27 14:07:52;;;;;;;4.47;2.15;;;;;;;21.49;85.36;100423.31;4879624;29;20451;-65
2022/06/27 14:10:20;;;;;;;4.75;2.40;;;;;;;21.54;84.19;100420.72;4879214;29;20141;-65
2022/06/27 14:12:50;;;;;;;2.78;2.00;;;;;;;21.57;83.70;100419.41;4879592;29;20040;-65
2022/06/27 14:15:17;;;;;;;4.00;2.10;;;;;;;21.71;82.66;100428.88;4878175;29;20618;-65
2022/06/27 14:17:43;;;;;;;2.72;1.92;;;;;;;21.65;80.94;100424.47;4879513;29;20055;-65
2022/06/27 14:20:12;;;;;;;1.75;1.50;;;;;;;21.98;80.57;100428.31;4877713;29;20049;-64
2022/06/27 14:22:37;;;;;;;2.85;1.80;;;;;;;22.19;79.62;100433.88;4879258;29;20085;-63
2022/06/27 14:25:04;;;;;;;1.90;1.70;;;;;;;22.39;77.69;100433.41;4879160;29;20152;-60
2022/06/27 14:27:31;;;;;;;3.65;2.08;;;;;;;22.69;78.61;100441.22;4879087;29;20036;-63
2022/06/27 14:29:57;;;;;;;2.28;1.80;;;;;;;22.81;74.40;100434.84;4878658;29;20043;-63
2022/06/27 14:32:22;;;;;;;4.05;1.77;;;;;;;22.89;75.31;100432.56;4879197;29;20033;-63
2022/06/27 14:34:48;;;;;;;2.20;1.77;;;;;;;22.71;72.91;100432.81;4879067;29;20456;-63
2022/06/27 14:37:13;;;;;;;4.65;1.70;;;;;;;22.74;74.20;100435.00;4879079;29;20057;-63
2022/06/27 14:39:39;;;;;;;1.90;1.70;;;;;;;22.70;75.19;100433.88;4878691;29;20056;-63
2022/06/27 14:42:04;;;;;;;3.22;1.70;;;;;;;22.62;73.18;100431.56;4878745;29;20040;-64
2022/06/27 14:44:32;;;;;;;3.40;1.80;;;;;;;22.85;71.52;100447.69;4878817;29;20048;-63
2022/06/27 14:46:58;;;;;;;4.43;2.90;;;;;;;23.07;73.45;100447.72;4878805;29;20223;-63
2022/06/27 14:49:23;;;;;;;2.97;2.30;;;;;;;23.29;74.76;100447.78;4878570;29;20049;-63
2022/06/27 14:51:49;;;;;;;2.03;1.70;;;;;;;23.39;75.09;100437.00;4878757;29;20040;-58
2022/06/27 14:54:16;;;;;;;3.17;1.83;;;;;;;23.52;73.64;100441.25;4878709;29;20133;-61
2022/06/27 14:56:42;;;;;;;4.28;1.80;;;;;;;23.45;71.13;100430.56;4878748;29;20436;-58
2022/06/27 14:59:08;;;;;;;2.40;1.73;;;;;;;23.42;73.20;100430.28;4878332;29;20150;-58
2022/06/27 15:01:33;;;;;;;2.15;1.80;;;;;;;23.31;69.51;100429.31;4878492;29;20052;-60
2022/06/27 15:03:59;;;;;;;2.17;1.98;;;;;;;23.34;70.62;100426.06;4878555;29;20403;-61
2022/06/27 15:06:25;;;;;;;2.28;1.65;;;;;;;23.36;71.40;100421.22;4878527;29;20081;-60
2022/06/27 15:08:51;;;;;;;2.55;1.73;;;;;;;23.41;73.12;100417.72;4878170;29;20132;-60
2022/06/27 15:14:18;;;;;;;2.00;1.80;;;;;;;23.37;70.69;100416.63;4876160;29;20049;-59
2022/06/27 15:16:50;;;;;;;2.35;1.83;;;;;;;23.37;71.63;100416.63;4877979;29;20072;-56
2022/06/27 15:19:20;;;;;;;3.47;1.92;;;;;;;23.39;71.52;100420.72;4878231;29;20407;-60
2022/06/27 15:21:47;;;;;;;2.95;2.00;;;;;;;23.27;68.28;100411.84;4878248;29;20415;-61
2022/06/27 15:24:13;;;;;;;2.40;1.90;;;;;;;23.35;70.81;100416.06;4878379;29;20049;-61
2022/06/27 15:26:39;;;;;;;3.90;3.00;;;;;;;23.47;70.65;100414.84;4878292;29;20061;-61
2022/06/27 15:29:05;;;;;;;3.83;2.25;;;;;;;23.37;70.22;100411.19;4878444;29;20409;-61
2022/06/27 15:31:31;;;;;;;2.60;2.30;;;;;;;23.41;69.80;100418.56;4876897;29;20045;-59
2022/06/27 15:33:57;;;;;;;4.32;2.45;;;;;;;23.45;70.62;100424.31;4878191;29;20495;-58
2022/06/27 15:36:23;;;;;;;4.22;2.30;;;;;;;23.25;73.00;100428.41;4878214;29;20081;-56
2022/06/27 15:38:49;;;;;;;3.65;2.50;;;;;;;23.25;71.36;100435.75;4877839;29;20041;-58
2022/06/27 15:41:14;;;;;;;4.13;2.80;;;;;;;23.24;73.43;100439.56;4878119;29;20520;-55
2022/06/27 15:43:40;;;;;;;3.83;2.83;;;;;;;23.12;73.87;100436.94;4877923;29;20455;-53
2022/06/27 15:46:05;;;;;;;4.10;2.53;;;;;;;23.10;73.57;100439.09;4878150;29;20484;-52
2022/06/27 15:48:31;;;;;;;4.85;2.53;;;;;;;23.07;73.37;100441.47;4877308;29;20503;-57